createdAt,value
2023-02-25T00:01:39.388Z,94495.25
2023-02-25T00:04:06.472Z,94474.97
2023-02-25T00:06:33.467Z,94473.94
2023-02-25T00:09:01.250Z,94465.66
2023-02-25T00:11:28.551Z,94465.16
2023-02-25T00:13:55.599Z,94470.09
2023-02-25T00:16:24.976Z,94470.63
2023-02-25T00:18:56.558Z,94460.78
2023-02-25T00:21:24.597Z,94449.09
2023-02-25T00:23:53.858Z,94448.31
2023-02-25T00:26:22.634Z,94445.22
2023-02-25T00:28:50.525Z,94442.56
2023-02-25T00:31:23.551Z,94437.84
2023-02-25T00:33:51.904Z,94427.66
2023-02-25T00:36:21.404Z,94428.97
2023-02-25T00:38:56.260Z,94416.00
2023-02-25T00:41:27.206Z,94424.00
2023-02-25T00:43:57.232Z,94416.78
2023-02-25T00:46:25.514Z,94407.69
2023-02-25T00:48:53.102Z,94404.56
2023-02-25T00:51:25.921Z,94410.47
2023-02-25T00:53:54.512Z,94400.09
2023-02-25T00:56:21.931Z,94389.63
2023-02-25T00:58:50.547Z,94397.69
2023-02-25T01:01:25.863Z,94385.69
2023-02-25T01:03:54.104Z,94388.03
2023-02-25T01:06:21.555Z,94382.28
2023-02-25T01:08:49.434Z,94389.31
2023-02-25T01:11:21.338Z,94364.41
2023-02-25T01:13:49.950Z,94360.81
2023-02-25T01:16:20.990Z,94358.25
2023-02-25T01:18:51.819Z,94342.66
2023-02-25T01:21:30.530Z,94340.06
2023-02-25T01:24:12.489Z,94340.59
2023-02-25T01:26:44.794Z,94335.13
2023-02-25T01:29:18.841Z,94340.28
2023-02-25T01:31:46.649Z,94345.78
2023-02-25T01:34:17.359Z,94339.81
2023-02-25T01:36:44.840Z,94337.00
2023-02-25T01:39:13.251Z,94343.78
2023-02-25T01:41:40.508Z,94342.53
2023-02-25T01:44:14.480Z,94339.94
2023-02-25T01:46:43.711Z,94338.41
2023-02-25T01:49:41.785Z,94318.72
2023-02-25T01:52:13.895Z,94306.78
2023-02-25T01:54:42.702Z,94289.66
2023-02-25T01:57:11.874Z,94297.22
2023-02-25T01:59:41.708Z,94310.69
2023-02-25T02:02:10.376Z,94321.56
2023-02-25T02:04:38.424Z,94310.41
2023-02-25T02:07:07.264Z,94309.59
2023-02-25T02:09:35.095Z,94340.22
2023-02-25T02:12:04.794Z,94332.38
2023-02-25T02:14:38.164Z,94324.59
2023-02-25T02:17:32.654Z,94317.56
2023-02-25T02:20:13.944Z,94310.31
2023-02-25T02:23:07.206Z,94302.53
2023-02-25T02:25:53.537Z,94322.81
2023-02-25T02:28:47.474Z,94326.94
2023-02-25T02:31:46.486Z,94323.56
2023-02-25T02:34:26.716Z,94308.28
2023-02-25T02:37:19.103Z,94306.22
2023-02-25T02:39:58.426Z,94321.00
2023-02-25T02:42:56.141Z,94316.59
2023-02-25T02:45:25.699Z,94320.47
2023-02-25T02:48:19.912Z,94324.91
2023-02-25T02:50:52.261Z,94316.63
2023-02-25T02:53:28.499Z,94323.63
2023-02-25T02:55:59.986Z,94317.41
2023-02-25T02:58:38.960Z,94330.16
2023-02-25T03:01:11.929Z,94332.25
2023-02-25T03:03:44.419Z,94343.19
2023-02-25T03:06:16.486Z,94350.50
2023-02-25T03:09:06.210Z,94351.53
2023-02-25T03:11:35.006Z,94343.25
2023-02-25T03:14:02.531Z,94354.16
2023-02-25T03:16:37.378Z,94352.84
2023-02-25T03:19:21.501Z,94354.16
2023-02-25T03:21:54.938Z,94348.69
2023-02-25T03:24:35.862Z,94357.63
2023-02-25T03:27:23.232Z,94366.56
2023-02-25T03:29:53.004Z,94367.66
2023-02-25T03:32:21.013Z,94370.00
2023-02-25T03:34:50.405Z,94383.25
2023-02-25T03:37:31.463Z,94386.63
2023-02-25T03:40:08.783Z,94393.38
2023-02-25T03:42:36.645Z,94410.56
2023-02-25T03:45:07.968Z,94414.78
2023-02-25T03:47:38.547Z,94409.09
2023-02-25T03:50:08.705Z,94404.69
2023-02-25T03:52:39.375Z,94419.25
2023-02-25T03:55:15.964Z,94420.06
2023-02-25T03:57:46.016Z,94414.34
2023-02-25T04:00:41.321Z,94404.75
2023-02-25T04:03:08.450Z,94401.13
2023-02-25T04:05:36.376Z,94408.41
2023-02-25T04:08:03.999Z,94409.22
2023-02-25T04:10:34.481Z,94415.69
2023-02-25T04:13:01.503Z,94416.19
2023-02-25T04:15:29.601Z,94422.97
2023-02-25T04:17:56.608Z,94425.53
2023-02-25T04:20:23.599Z,94427.63
2023-02-25T04:22:50.488Z,94431.28
2023-02-25T04:25:17.512Z,94412.03
2023-02-25T04:27:44.441Z,94418.19
2023-02-25T04:30:12.182Z,94412.47
2023-02-25T04:32:39.204Z,94411.13
2023-02-25T04:35:10.630Z,94409.81
2023-02-25T04:37:38.813Z,94427.59
2023-02-25T04:40:12.448Z,94440.59
2023-02-25T04:42:40.120Z,94438.22
2023-02-25T04:45:09.738Z,94454.09
2023-02-25T04:47:37.071Z,94465.84
2023-02-25T04:50:05.452Z,94481.25
2023-02-25T04:52:32.357Z,94488.25
2023-02-25T04:54:59.314Z,94478.53
2023-02-25T04:57:26.250Z,94499.41
2023-02-25T04:59:53.280Z,94502.03
2023-02-25T05:02:20.521Z,94499.38
2023-02-25T05:04:49.158Z,94494.94
2023-02-25T05:07:16.262Z,94499.09
2023-02-25T05:09:43.183Z,94497.78
2023-02-25T05:12:10.445Z,94476.94
2023-02-25T05:14:38.113Z,94491.81
2023-02-25T05:17:05.133Z,94490.06
2023-02-25T05:19:32.617Z,94484.41
2023-02-25T05:21:59.598Z,94503.16
2023-02-25T05:24:26.728Z,94507.06
2023-02-25T05:26:54.019Z,94524.28
2023-02-25T05:29:21.129Z,94527.44
2023-02-25T05:31:49.798Z,94517.78
2023-02-25T05:34:17.207Z,94512.31
2023-02-25T05:36:44.240Z,94515.72
2023-02-25T05:39:13.691Z,94521.19
2023-02-25T05:41:41.044Z,94527.19
2023-02-25T05:44:08.355Z,94538.91
2023-02-25T05:46:35.629Z,94540.94
2023-02-25T05:49:02.699Z,94544.59
2023-02-25T05:51:29.957Z,94548.50
2023-02-25T05:53:57.606Z,94565.44
2023-02-25T05:56:26.108Z,94545.38
2023-02-25T05:58:54.326Z,94546.94
2023-02-25T06:01:24.498Z,94551.38
2023-02-25T06:03:52.554Z,94555.00
2023-02-25T06:06:23.822Z,94550.06
2023-02-25T06:08:51.917Z,94543.59
2023-02-25T06:11:28.269Z,94543.84
2023-02-25T06:13:56.240Z,94554.78
2023-02-25T06:16:26.079Z,94539.91
2023-02-25T06:18:53.474Z,94542.78
2023-02-25T06:21:20.508Z,94549.28
2023-02-25T06:23:50.547Z,94558.41
2023-02-25T06:26:18.188Z,94568.00
2023-02-25T06:28:45.415Z,94565.84
2023-02-25T06:31:15.121Z,94565.56
2023-02-25T06:33:42.630Z,94565.09
2023-02-25T06:36:10.705Z,94559.94
2023-02-25T06:38:37.829Z,94563.56
2023-02-25T06:41:15.660Z,94568.78
2023-02-25T06:43:42.815Z,94562.00
2023-02-25T06:46:12.438Z,94562.78
2023-02-25T06:48:39.684Z,94574.47
2023-02-25T06:51:10.761Z,94587.97
2023-02-25T06:53:42.756Z,94577.63
2023-02-25T06:56:12.983Z,94569.56
2023-02-25T06:58:40.450Z,94586.75
2023-02-25T07:01:09.392Z,94588.28
2023-02-25T07:03:36.783Z,94590.91
2023-02-25T07:06:04.196Z,94590.69
2023-02-25T07:08:31.637Z,94610.50
2023-02-25T07:11:29.847Z,94600.34
2023-02-25T07:13:57.838Z,94572.63
2023-02-25T07:16:25.686Z,94582.34
2023-02-25T07:18:52.973Z,94578.72
2023-02-25T07:21:20.139Z,94570.31
2023-02-25T07:23:47.166Z,94549.53
2023-02-25T07:26:15.080Z,94559.94
2023-02-25T07:28:42.956Z,94602.41
2023-02-25T07:31:17.486Z,94590.69
2023-02-25T07:33:44.902Z,94615.94
2023-02-25T07:36:12.688Z,94631.84
2023-02-25T07:38:40.233Z,94601.88
2023-02-25T07:41:09.024Z,94578.44
2023-02-25T07:43:36.042Z,94580.28
2023-02-25T07:46:04.160Z,94592.56
2023-02-25T07:48:31.996Z,94575.09
2023-02-25T07:51:13.556Z,94581.06
2023-02-25T07:53:40.539Z,94571.19
2023-02-25T07:56:09.220Z,94557.13
2023-02-25T07:58:36.787Z,94583.94
2023-02-25T08:01:21.028Z,94587.06
2023-02-25T08:03:49.359Z,94570.41
2023-02-25T08:06:16.321Z,94587.09
2023-02-25T08:08:43.476Z,94586.84
2023-02-25T08:11:12.437Z,94579.28
2023-02-25T08:13:39.479Z,94580.06
2023-02-25T08:16:08.726Z,94594.41
2023-02-25T08:18:36.979Z,94583.19
2023-02-25T08:21:04.796Z,94549.28
2023-02-25T08:23:31.939Z,94562.09
2023-02-25T08:25:59.586Z,94582.16
2023-02-25T08:28:31.805Z,94597.28
2023-02-25T08:31:00.654Z,94601.19
2023-02-25T08:33:30.022Z,94586.56
2023-02-25T08:36:05.592Z,94576.38
2023-02-25T08:38:32.590Z,94602.19
2023-02-25T08:41:00.953Z,94601.16
2023-02-25T08:43:28.001Z,94616.53
2023-02-25T08:45:56.839Z,94611.59
2023-02-25T08:48:24.369Z,94617.31
2023-02-25T08:50:51.673Z,94608.97
2023-02-25T08:53:19.423Z,94592.78
2023-02-25T08:55:47.559Z,94605.84
2023-02-25T08:58:14.655Z,94620.97
2023-02-25T09:00:41.733Z,94607.09
2023-02-25T09:03:09.042Z,94594.84
2023-02-25T09:05:38.130Z,94580.25
2023-02-25T09:08:05.246Z,94584.91
2023-02-25T09:10:48.162Z,94571.06
2023-02-25T09:13:17.507Z,94576.47
2023-02-25T09:15:44.534Z,94578.03
2023-02-25T09:18:12.021Z,94606.97
2023-02-25T09:20:39.185Z,94599.56
2023-02-25T09:23:06.147Z,94605.06
2023-02-25T09:25:33.206Z,94600.84
2023-02-25T09:28:00.147Z,94590.38
2023-02-25T09:30:27.088Z,94598.31
2023-02-25T09:32:54.182Z,94588.69
2023-02-25T09:35:21.214Z,94595.53
2023-02-25T09:37:48.156Z,94590.94
2023-02-25T09:40:19.303Z,94583.94
2023-02-25T09:42:53.767Z,94577.63
2023-02-25T09:45:24.923Z,94578.00
2023-02-25T09:48:00.246Z,94581.00
2023-02-25T09:50:33.174Z,94582.84
2023-02-25T09:53:32.192Z,94591.50
2023-02-25T09:55:59.492Z,94581.81
2023-02-25T09:58:46.214Z,94594.97
2023-02-25T10:01:34.486Z,94585.66
2023-02-25T10:04:17.140Z,94581.03
2023-02-25T10:06:48.462Z,94584.41
2023-02-25T10:09:25.146Z,94593.13
2023-02-25T10:12:01.152Z,94584.16
2023-02-25T10:15:12.992Z,94582.09
2023-02-25T10:18:11.658Z,94588.16
2023-02-25T10:21:25.444Z,94596.13
2023-02-25T10:24:09.151Z,94583.88
2023-02-25T10:26:45.102Z,94586.00
2023-02-25T10:29:30.317Z,94584.22
2023-02-25T10:32:00.247Z,94596.66
2023-02-25T10:34:29.710Z,94589.00
2023-02-25T10:36:59.423Z,94598.84
2023-02-25T10:39:28.809Z,94594.47
2023-02-25T10:41:56.505Z,94595.63
2023-02-25T10:44:23.481Z,94589.94
2023-02-25T10:46:55.860Z,94581.81
2023-02-25T10:49:28.557Z,94589.81
2023-02-25T10:52:00.036Z,94586.63
2023-02-25T10:54:28.006Z,94597.78
2023-02-25T10:56:55.766Z,94585.59
2023-02-25T10:59:35.259Z,94584.97
2023-02-25T11:02:02.970Z,94578.50
2023-02-25T11:04:36.542Z,94584.28
2023-02-25T11:07:34.659Z,94592.44
2023-02-25T11:10:18.439Z,94585.84
2023-02-25T11:12:47.402Z,94581.13
2023-02-25T11:15:44.865Z,94589.66
2023-02-25T11:18:29.505Z,94587.38
2023-02-25T11:20:59.482Z,94587.28
2023-02-25T11:23:35.795Z,94584.53
2023-02-25T11:26:04.131Z,94595.41
2023-02-25T11:28:41.582Z,94587.81
2023-02-25T11:31:22.337Z,94587.41
2023-02-25T11:33:57.631Z,94589.25
2023-02-25T11:36:29.899Z,94595.66
2023-02-25T11:39:15.685Z,94593.94
2023-02-25T11:41:47.837Z,94595.34
2023-02-25T11:44:27.207Z,94591.63
2023-02-25T11:47:07.067Z,94576.56
2023-02-25T11:49:49.619Z,94575.78
2023-02-25T11:52:34.107Z,94582.47
2023-02-25T11:55:12.855Z,94566.94
2023-02-25T11:57:59.810Z,94575.50
2023-02-25T12:00:36.322Z,94567.72
2023-02-25T12:13:53.643Z,94565.84
2023-02-25T12:16:32.855Z,94567.53
2023-02-25T12:19:05.577Z,94570.66
2023-02-25T12:21:38.296Z,94582.59
2023-02-25T12:24:37.694Z,94577.75
2023-02-25T12:27:24.309Z,94570.56
2023-02-25T12:30:28.209Z,94556.94
2023-02-25T12:33:03.790Z,94550.25
2023-02-25T12:36:09.836Z,94552.75
2023-02-25T12:38:51.884Z,94536.34
2023-02-25T12:41:33.810Z,94538.19
2023-02-25T12:44:06.719Z,94536.06
2023-02-25T12:46:42.511Z,94528.13
2023-02-25T12:49:12.574Z,94514.06
2023-02-25T12:52:03.865Z,94503.25
2023-02-25T12:54:39.166Z,94488.50
2023-02-25T12:57:39.968Z,94490.97
2023-02-25T13:00:43.321Z,94489.84
2023-02-25T13:03:33.314Z,94515.22
2023-02-25T13:06:11.829Z,94526.84
2023-02-25T13:09:19.589Z,94540.09
2023-02-25T13:12:17.246Z,94550.50
2023-02-25T13:15:08.826Z,94556.94
2023-02-25T13:18:07.326Z,94548.78
2023-02-25T13:20:45.501Z,94552.56
2023-02-25T13:23:31.174Z,94552.28
2023-02-25T13:26:00.938Z,94542.25
2023-02-25T13:28:52.748Z,94539.28
2023-02-25T13:31:38.193Z,94532.72
2023-02-25T13:34:23.527Z,94538.94
2023-02-25T13:37:30.302Z,94530.13
2023-02-25T13:40:31.097Z,94547.09
2023-02-25T13:43:01.070Z,94542.88
2023-02-25T13:45:38.884Z,94527.59
2023-02-25T13:48:17.200Z,94536.22
2023-02-25T13:51:15.946Z,94533.44
2023-02-25T13:54:24.885Z,94544.63
2023-02-25T13:57:16.490Z,94550.44
2023-02-25T14:00:03.974Z,94557.09
2023-02-25T14:03:15.717Z,94560.69
2023-02-25T14:05:57.535Z,94557.56
2023-02-25T14:08:40.598Z,94553.94
2023-02-25T14:11:23.298Z,94557.75
2023-02-25T14:13:56.076Z,94561.56
2023-02-25T14:17:10.428Z,94587.53
2023-02-25T14:20:21.872Z,94592.84
2023-02-25T14:23:11.919Z,94597.47
2023-02-25T14:25:58.442Z,94607.00
2023-02-25T14:28:57.152Z,94610.03
2023-02-25T14:31:47.170Z,94617.94
2023-02-25T14:34:23.239Z,94623.56
2023-02-25T14:37:02.258Z,94618.81
2023-02-25T14:40:19.936Z,94620.00
2023-02-25T14:42:55.796Z,94622.25
2023-02-25T14:45:28.956Z,94624.06
2023-02-25T14:48:10.897Z,94630.47
2023-02-25T14:51:07.894Z,94624.47
2023-02-25T14:54:08.624Z,94623.91
2023-02-25T14:56:47.852Z,94630.00
2023-02-25T14:59:40.573Z,94622.28
2023-02-25T15:02:16.388Z,94617.66
2023-02-25T15:05:20.354Z,94630.59
2023-02-25T15:08:19.054Z,94639.84
2023-02-25T15:11:15.522Z,94642.75
2023-02-25T15:14:20.014Z,94637.66
2023-02-25T15:17:18.072Z,94636.25
2023-02-25T15:20:00.473Z,94650.88
2023-02-25T15:22:33.054Z,94644.72
2023-02-25T15:25:21.645Z,94651.22
2023-02-25T15:28:00.342Z,94660.28
2023-02-25T15:30:29.025Z,94663.28
2023-02-25T15:33:14.156Z,94648.88
2023-02-25T15:35:41.163Z,94652.22
2023-02-25T15:38:38.625Z,94663.16
2023-02-25T15:41:34.729Z,94668.19
2023-02-25T15:44:22.787Z,94665.63
2023-02-25T15:46:50.409Z,94667.44
2023-02-25T15:49:17.236Z,94662.47
2023-02-25T15:51:59.376Z,94668.13
2023-02-25T15:54:32.157Z,94665.97
2023-02-25T15:57:01.518Z,94674.59
2023-02-25T15:59:47.217Z,94674.75
2023-02-25T16:02:29.244Z,94672.69
2023-02-25T16:05:05.944Z,94666.22
2023-02-25T16:07:37.228Z,94666.22
2023-02-25T16:10:09.702Z,94656.53
2023-02-25T16:12:38.885Z,94679.28
2023-02-25T16:15:06.565Z,94697.06
2023-02-25T16:17:35.961Z,94695.25
2023-02-25T16:20:28.177Z,94712.75
2023-02-25T16:22:59.692Z,94717.19
2023-02-25T16:26:16.242Z,94722.94
2023-02-25T16:28:59.195Z,94731.81
2023-02-25T16:31:29.557Z,94713.28
2023-02-25T16:34:19.395Z,94704.41
2023-02-25T16:36:51.984Z,94712.22
2023-02-25T16:39:23.763Z,94726.84
2023-02-25T16:41:55.745Z,94744.34
2023-02-25T16:44:31.718Z,94749.84
2023-02-25T16:46:58.939Z,94760.53
2023-02-25T16:49:47.508Z,94760.28
2023-02-25T16:52:37.906Z,94754.78
2023-02-25T16:55:12.990Z,94756.09
2023-02-25T16:57:40.032Z,94763.66
2023-02-25T17:00:15.667Z,94772.03
2023-02-25T17:02:53.816Z,94779.03
2023-02-25T17:05:25.800Z,94778.28
2023-02-25T17:07:59.807Z,94779.03
2023-02-25T17:10:53.343Z,94793.38
2023-02-25T17:13:26.157Z,94785.22
2023-02-25T17:15:53.433Z,94785.00
2023-02-25T17:18:24.678Z,94781.53
2023-02-25T17:21:00.127Z,94778.69
2023-02-25T17:23:27.226Z,94789.59
2023-02-25T17:25:55.075Z,94808.31
2023-02-25T17:28:25.906Z,94821.75
2023-02-25T17:30:53.364Z,94804.63
2023-02-25T17:33:27.089Z,94802.81
2023-02-25T17:36:01.990Z,94789.78
2023-02-25T17:38:29.550Z,94794.50
2023-02-25T17:40:56.958Z,94785.34
2023-02-25T17:43:38.223Z,94790.25
2023-02-25T17:46:24.207Z,94804.84
2023-02-25T17:48:55.000Z,94825.47
2023-02-25T17:51:34.694Z,94811.91
2023-02-25T17:54:22.579Z,94804.38
2023-02-25T17:57:01.018Z,94799.06
2023-02-25T17:59:28.153Z,94794.97
2023-02-25T18:02:00.154Z,94789.78
2023-02-25T18:04:40.394Z,94781.22
2023-02-25T18:07:19.459Z,94773.66
2023-02-25T18:09:46.730Z,94784.81
2023-02-25T18:12:26.845Z,94782.75
2023-02-25T18:15:00.614Z,94774.75
2023-02-25T18:17:31.957Z,94778.88
2023-02-25T18:20:08.837Z,94777.34
2023-02-25T18:22:45.733Z,94778.88
2023-02-25T18:25:36.211Z,94795.53
2023-02-25T18:28:05.982Z,94800.97
2023-02-25T18:30:33.524Z,94812.66
2023-02-25T18:33:00.559Z,94815.81
2023-02-25T18:35:29.842Z,94820.47
2023-02-25T18:37:58.102Z,94815.28
2023-02-25T18:40:30.721Z,94791.03
2023-02-25T18:42:59.191Z,94775.41
2023-02-25T18:45:27.879Z,94786.38
2023-02-25T18:47:57.076Z,94785.09
2023-02-25T18:50:24.881Z,94772.09
2023-02-25T18:52:51.899Z,94765.84
2023-02-25T18:55:23.613Z,94775.50
2023-02-25T18:57:50.905Z,94791.41
2023-02-25T19:00:20.153Z,94809.41
2023-02-25T19:03:05.098Z,94824.28
2023-02-25T19:05:32.220Z,94833.66
2023-02-25T19:07:59.797Z,94837.28
2023-02-25T19:10:30.637Z,94839.59
2023-02-25T19:13:06.856Z,94842.97
2023-02-25T19:15:34.316Z,94852.31
2023-02-25T19:18:01.373Z,94856.50
2023-02-25T19:20:28.489Z,94856.00
2023-02-25T19:22:55.441Z,94848.38
2023-02-25T19:25:26.339Z,94852.28
2023-02-25T19:27:54.585Z,94851.75
2023-02-25T19:30:25.091Z,94845.19
2023-02-25T19:32:52.671Z,94843.91
2023-02-25T19:35:19.791Z,94860.25
2023-02-25T19:37:46.905Z,94864.88
2023-02-25T19:40:16.688Z,94877.75
2023-02-25T19:42:44.939Z,94880.63
2023-02-25T19:45:13.975Z,94879.97
2023-02-25T19:47:41.258Z,94883.50
2023-02-25T19:50:08.963Z,94896.94
2023-02-25T19:52:36.450Z,94907.91
2023-02-25T19:55:05.124Z,94906.59
2023-02-25T19:57:32.771Z,94909.50
2023-02-25T19:59:59.871Z,94928.97
2023-02-25T20:02:26.856Z,94943.75
2023-02-25T20:04:53.836Z,94936.44
2023-02-25T20:07:20.811Z,94941.63
2023-02-25T20:09:47.851Z,94932.22
2023-02-25T20:12:15.005Z,94910.38
2023-02-25T20:14:42.032Z,94885.38
2023-02-25T20:17:09.266Z,94889.25
2023-02-25T20:19:36.393Z,94887.59
2023-02-25T20:22:06.219Z,94890.19
2023-02-25T20:24:34.147Z,94902.88
2023-02-25T20:27:01.148Z,94923.66
2023-02-25T20:29:28.695Z,94942.88
2023-02-25T20:31:58.898Z,94961.56
2023-02-25T20:34:27.639Z,94970.97
2023-02-25T20:37:06.801Z,94973.59
2023-02-25T20:39:39.928Z,94985.09
2023-02-25T20:42:12.848Z,94981.47
2023-02-25T20:44:40.752Z,94979.41
2023-02-25T20:47:13.304Z,94990.84
2023-02-25T20:49:40.717Z,94997.06
2023-02-25T20:52:07.844Z,94990.09
2023-02-25T20:54:34.803Z,94978.38
2023-02-25T20:57:02.515Z,94945.59
2023-02-25T20:59:29.565Z,94919.63
2023-02-25T21:01:57.951Z,94907.81
2023-02-25T21:04:24.953Z,94926.50
2023-02-25T21:06:51.945Z,94932.47
2023-02-25T21:09:18.865Z,94955.03
2023-02-25T21:11:45.986Z,94986.69
2023-02-25T21:14:12.913Z,95004.41
2023-02-25T21:16:39.908Z,94999.16
2023-02-25T21:19:07.818Z,94984.88
2023-02-25T21:21:37.451Z,94985.66
2023-02-25T21:24:15.302Z,94989.38
2023-02-25T21:26:43.244Z,94993.56
2023-02-25T21:29:11.077Z,94983.22
2023-02-25T21:31:38.634Z,94978.25
2023-02-25T21:34:06.352Z,94991.31
2023-02-25T21:36:34.174Z,94996.25
2023-02-25T21:39:01.184Z,95000.69
2023-02-25T21:41:28.174Z,95006.06
2023-02-25T21:43:55.954Z,95008.75
2023-02-25T21:46:23.405Z,95015.03
2023-02-25T21:48:53.363Z,95014.78
2023-02-25T21:51:22.804Z,94998.41
2023-02-25T21:53:54.194Z,94991.06
2023-02-25T21:56:21.625Z,94985.84
2023-02-25T21:58:49.498Z,94989.50
2023-02-25T22:01:21.304Z,95001.06
2023-02-25T22:03:48.779Z,95015.66
2023-02-25T22:06:16.190Z,95025.16
2023-02-25T22:08:45.707Z,95028.56
2023-02-25T22:11:18.968Z,95030.81
2023-02-25T22:13:46.644Z,95021.22
2023-02-25T22:16:15.312Z,95025.81
2023-02-25T22:18:42.950Z,95017.81
2023-02-25T22:21:17.466Z,94996.03
2023-02-25T22:23:45.459Z,94969.75
2023-02-25T22:26:15.099Z,94963.72
2023-02-25T22:28:43.768Z,94954.69
2023-02-25T22:31:12.667Z,94972.63
2023-02-25T22:33:40.235Z,94993.25
2023-02-25T22:36:08.309Z,94992.56
2023-02-25T22:38:38.100Z,94977.38
2023-02-25T22:41:06.531Z,94980.88
2023-02-25T22:43:33.982Z,94991.47
2023-02-25T22:46:15.416Z,94998.25
2023-02-25T22:48:44.780Z,95013.88
2023-02-25T22:51:12.551Z,95024.25
2023-02-25T22:53:40.966Z,95023.72
2023-02-25T22:56:10.645Z,95035.09
2023-02-25T22:58:40.673Z,95048.84
2023-02-25T23:01:09.415Z,95049.72
2023-02-25T23:03:36.642Z,95041.28
2023-02-25T23:06:03.821Z,95052.09
2023-02-25T23:08:31.015Z,95054.03
2023-02-25T23:11:18.355Z,95045.81
2023-02-25T23:13:50.572Z,95038.97
2023-02-25T23:16:27.553Z,95036.59
2023-02-25T23:19:00.290Z,95059.03
2023-02-25T23:21:28.917Z,95071.84
2023-02-25T23:23:58.409Z,95061.03
2023-02-25T23:26:28.803Z,95073.78
2023-02-25T23:29:04.140Z,95072.53
2023-02-25T23:31:33.987Z,95073.22
2023-02-25T23:34:04.055Z,95073.88
2023-02-25T23:36:31.394Z,95069.59
2023-02-25T23:39:02.169Z,95094.69
2023-02-25T23:41:30.172Z,95107.84
2023-02-25T23:44:00.745Z,95101.34
2023-02-25T23:46:30.492Z,95099.97
2023-02-25T23:49:03.346Z,95106.53
2023-02-25T23:51:30.527Z,95095.47
2023-02-25T23:54:00.233Z,95087.59
2023-02-25T23:56:28.045Z,95069.63
2023-02-25T23:58:55.975Z,95059.81
